createdAt,value
2023-04-29T00:01:13.261Z,2.90
2023-04-29T00:03:39.856Z,2.89
2023-04-29T00:06:06.723Z,2.88
2023-04-29T00:08:34.372Z,2.85
2023-04-29T00:11:01.048Z,2.83
2023-04-29T00:13:27.559Z,2.81
2023-04-29T00:15:54.074Z,2.78
2023-04-29T00:18:20.866Z,2.73
2023-04-29T00:20:47.413Z,2.69
2023-04-29T00:23:13.991Z,2.64
2023-04-29T00:25:40.557Z,2.60
2023-04-29T00:28:07.221Z,2.56
2023-04-29T00:30:34.104Z,2.53
2023-04-29T00:33:00.801Z,2.50
2023-04-29T00:35:27.306Z,2.50
2023-04-29T00:37:53.778Z,2.50
2023-04-29T00:40:20.632Z,2.50
2023-04-29T00:42:47.368Z,2.51
2023-04-29T00:45:13.947Z,2.51
2023-04-29T00:47:41.281Z,2.53
2023-04-29T00:50:08.294Z,2.55
2023-04-29T00:52:35.814Z,2.57
2023-04-29T00:55:02.392Z,2.57
2023-04-29T00:57:29.491Z,2.57
2023-04-29T00:59:59.452Z,2.55
2023-04-29T01:02:26.191Z,2.52
2023-04-29T01:04:52.868Z,2.52
2023-04-29T01:07:31.279Z,2.53
2023-04-29T01:10:18.397Z,2.52
2023-04-29T01:12:48.851Z,2.50
2023-04-29T01:15:21.052Z,2.46
2023-04-29T01:17:50.933Z,2.44
2023-04-29T01:20:18.519Z,2.42
2023-04-29T01:22:45.316Z,2.36
2023-04-29T01:25:12.422Z,2.31
2023-04-29T01:28:13.990Z,2.25
2023-04-29T01:30:56.606Z,2.22
2023-04-29T01:33:34.170Z,2.19
2023-04-29T01:36:39.008Z,2.19
2023-04-29T01:39:13.946Z,2.18
2023-04-29T01:41:51.539Z,2.16
2023-04-29T01:44:24.941Z,2.15
2023-04-29T01:46:53.295Z,2.12
2023-04-29T01:49:21.597Z,2.08
2023-04-29T01:51:48.160Z,2.03
2023-04-29T01:54:14.846Z,1.99
2023-04-29T01:56:41.851Z,1.95
2023-04-29T01:59:20.742Z,1.89
2023-04-29T02:02:14.624Z,1.86
2023-04-29T02:04:50.077Z,1.83
2023-04-29T02:07:17.006Z,1.81
2023-04-29T02:09:44.428Z,1.78
2023-04-29T02:12:11.715Z,1.74
2023-04-29T02:14:38.916Z,1.70
2023-04-29T02:17:05.698Z,1.66
2023-04-29T02:19:32.410Z,1.61
2023-04-29T02:21:59.544Z,1.60
2023-04-29T02:24:26.314Z,1.59
2023-04-29T02:26:52.959Z,1.61
2023-04-29T02:29:19.695Z,1.61
2023-04-29T02:31:46.586Z,1.62
2023-04-29T02:34:13.162Z,1.63
2023-04-29T02:36:39.747Z,1.62
2023-04-29T02:39:06.566Z,1.63
2023-04-29T02:41:33.038Z,1.64
2023-04-29T02:43:59.877Z,1.62
2023-04-29T02:46:26.492Z,1.58
2023-04-29T02:48:52.985Z,1.53
2023-04-29T02:51:19.559Z,1.47
2023-04-29T02:53:46.136Z,1.45
2023-04-29T02:56:12.620Z,1.43
2023-04-29T02:58:39.238Z,1.42
2023-04-29T03:01:05.736Z,1.41
2023-04-29T03:03:32.477Z,1.39
2023-04-29T03:05:59.271Z,1.42
2023-04-29T03:08:26.393Z,1.44
2023-04-29T03:10:53.248Z,1.46
2023-04-29T03:13:20.222Z,1.49
2023-04-29T03:15:46.727Z,1.55
2023-04-29T03:18:13.341Z,1.58
2023-04-29T03:20:39.887Z,1.62
2023-04-29T03:23:06.495Z,1.63
2023-04-29T03:25:33.104Z,1.62
2023-04-29T03:27:59.616Z,1.60
2023-04-29T03:30:26.456Z,1.58
2023-04-29T03:32:55.104Z,1.59
2023-04-29T03:35:21.926Z,1.59
2023-04-29T03:38:07.593Z,1.60
2023-04-29T03:40:35.184Z,1.65
2023-04-29T03:43:01.713Z,1.71
2023-04-29T03:45:28.943Z,1.78
2023-04-29T03:47:55.887Z,1.88
2023-04-29T03:50:22.586Z,2.01
2023-04-29T03:52:49.059Z,2.18
2023-04-29T03:55:16.542Z,2.38
2023-04-29T03:57:43.477Z,2.56
2023-04-29T04:00:10.979Z,2.74
2023-04-29T04:02:40.415Z,2.90
2023-04-29T04:05:07.840Z,3.10
2023-04-29T04:07:34.863Z,3.38
2023-04-29T04:10:24.324Z,3.83
2023-04-29T04:12:51.126Z,4.23
2023-04-29T04:15:17.759Z,4.62
2023-04-29T04:17:44.414Z,4.94
2023-04-29T04:20:11.586Z,5.30
2023-04-29T04:22:38.215Z,5.76
2023-04-29T04:25:13.557Z,6.32
2023-04-29T04:27:40.535Z,6.84
2023-04-29T04:30:09.168Z,7.31
2023-04-29T04:32:37.171Z,7.55
2023-04-29T04:35:04.269Z,7.70
2023-04-29T04:37:30.875Z,7.85
2023-04-29T04:39:58.827Z,7.86
2023-04-29T04:42:25.416Z,7.78
2023-04-29T04:44:53.269Z,7.64
2023-04-29T04:47:29.571Z,7.47
2023-04-29T04:50:07.663Z,7.36
2023-04-29T04:52:34.947Z,7.29
2023-04-29T04:55:17.057Z,7.19
2023-04-29T04:57:45.678Z,7.09
2023-04-29T05:00:13.243Z,7.03
2023-04-29T05:02:40.051Z,7.02
2023-04-29T05:05:07.219Z,7.01
2023-04-29T05:07:35.415Z,7.01
2023-04-29T05:10:06.055Z,7.00
2023-04-29T05:12:34.745Z,7.01
2023-04-29T05:15:02.276Z,7.05
2023-04-29T05:17:29.848Z,7.09
2023-04-29T05:19:56.437Z,7.13
2023-04-29T05:22:23.486Z,7.20
2023-04-29T05:24:51.055Z,7.28
2023-04-29T05:27:18.366Z,7.34
2023-04-29T05:29:45.029Z,7.41
2023-04-29T05:32:12.877Z,7.49
2023-04-29T05:34:39.852Z,7.56
2023-04-29T05:37:06.405Z,7.66
2023-04-29T05:39:36.748Z,7.78
2023-04-29T05:42:08.884Z,7.92
2023-04-29T05:44:43.358Z,8.06
2023-04-29T05:47:10.188Z,8.17
2023-04-29T05:49:38.641Z,8.30
2023-04-29T05:52:06.015Z,8.41
2023-04-29T05:54:33.193Z,8.50
2023-04-29T05:57:01.787Z,8.61
2023-04-29T05:59:31.908Z,8.74
2023-04-29T06:01:59.573Z,8.84
2023-04-29T06:04:26.386Z,8.94
2023-04-29T06:06:53.445Z,9.05
2023-04-29T06:09:28.385Z,9.14
2023-04-29T06:12:00.930Z,9.22
2023-04-29T06:14:27.578Z,9.28
2023-04-29T06:16:54.461Z,9.33
2023-04-29T06:19:21.019Z,9.40
2023-04-29T06:21:48.144Z,9.48
2023-04-29T06:24:15.259Z,9.52
2023-04-29T06:26:41.741Z,9.55
2023-04-29T06:29:08.460Z,9.58
2023-04-29T06:31:36.290Z,9.60
2023-04-29T06:34:04.153Z,9.63
2023-04-29T06:36:31.827Z,9.69
2023-04-29T06:39:08.180Z,9.72
2023-04-29T06:41:46.655Z,9.75
2023-04-29T06:44:32.054Z,9.82
2023-04-29T06:47:05.483Z,9.88
2023-04-29T06:49:48.397Z,9.95
2023-04-29T06:52:15.120Z,10.01
2023-04-29T06:54:42.897Z,10.05
2023-04-29T06:57:09.468Z,10.09
2023-04-29T06:59:37.158Z,10.11
2023-04-29T07:02:04.066Z,10.11
2023-04-29T07:04:30.814Z,10.13
2023-04-29T07:06:58.955Z,10.18
2023-04-29T07:09:26.966Z,10.24
2023-04-29T07:11:54.242Z,10.32
2023-04-29T07:14:21.874Z,10.41
2023-04-29T07:16:52.824Z,10.48
2023-04-29T07:19:20.023Z,10.53
2023-04-29T07:21:46.875Z,10.55
2023-04-29T07:24:13.291Z,10.57
2023-04-29T07:26:40.106Z,10.61
2023-04-29T07:29:06.871Z,10.64
2023-04-29T07:31:38.049Z,10.65
2023-04-29T07:34:05.524Z,10.63
2023-04-29T07:36:32.447Z,10.65
2023-04-29T07:38:59.294Z,10.68
2023-04-29T07:41:26.878Z,10.73
2023-04-29T07:43:53.628Z,10.78
2023-04-29T07:46:20.367Z,10.82
2023-04-29T07:48:47.017Z,10.88
2023-04-29T07:51:14.156Z,10.91
2023-04-29T07:53:42.870Z,10.90
2023-04-29T07:56:09.453Z,10.88
2023-04-29T07:58:36.458Z,10.89
2023-04-29T08:01:08.004Z,10.93
2023-04-29T08:03:35.078Z,11.02
2023-04-29T08:06:04.401Z,11.12
2023-04-29T08:08:31.297Z,11.19
2023-04-29T08:10:57.944Z,11.20
2023-04-29T08:13:24.804Z,11.20
2023-04-29T08:15:52.093Z,11.24
2023-04-29T08:18:20.935Z,11.26
2023-04-29T08:20:48.815Z,11.26
2023-04-29T08:23:15.814Z,11.28
2023-04-29T08:25:43.359Z,11.30
2023-04-29T08:28:10.547Z,11.35
2023-04-29T08:30:40.507Z,11.38
2023-04-29T08:33:07.778Z,11.40
2023-04-29T08:35:37.011Z,11.46
2023-04-29T08:38:06.895Z,11.48
2023-04-29T08:40:34.883Z,11.46
2023-04-29T08:43:02.783Z,11.47
2023-04-29T08:45:29.475Z,11.49
2023-04-29T08:47:56.813Z,11.57
2023-04-29T08:50:23.578Z,11.66
2023-04-29T08:52:51.245Z,11.70
2023-04-29T08:55:18.213Z,11.72
2023-04-29T08:57:44.701Z,11.81
2023-04-29T09:00:11.570Z,11.84
2023-04-29T09:02:41.273Z,11.87
2023-04-29T09:05:10.799Z,11.98
2023-04-29T09:07:39.095Z,12.02
2023-04-29T09:10:06.414Z,12.05
2023-04-29T09:12:33.187Z,12.07
2023-04-29T09:15:00.251Z,12.14
2023-04-29T09:17:46.208Z,12.23
2023-04-29T09:20:22.065Z,12.32
2023-04-29T09:22:52.203Z,12.34
2023-04-29T09:26:41.034Z,12.35
2023-04-29T09:29:08.185Z,12.35
2023-04-29T09:31:35.175Z,12.35
2023-04-29T09:34:02.314Z,12.30
2023-04-29T09:36:38.456Z,12.23
2023-04-29T09:39:11.094Z,12.21
2023-04-29T09:41:53.220Z,12.23
2023-04-29T09:44:27.467Z,12.27
2023-04-29T09:47:03.125Z,12.32
2023-04-29T09:49:41.246Z,12.35
2023-04-29T09:52:09.893Z,12.39
2023-04-29T09:54:38.608Z,12.41
2023-04-29T09:57:06.146Z,12.45
2023-04-29T09:59:37.499Z,12.43
2023-04-29T10:02:18.211Z,12.39
2023-04-29T10:04:46.094Z,12.43
2023-04-29T10:07:20.102Z,12.51
2023-04-29T10:09:47.874Z,12.53
2023-04-29T10:12:18.987Z,12.54
2023-04-29T10:14:50.787Z,12.59
2023-04-29T10:17:21.829Z,12.68
2023-04-29T10:20:05.962Z,12.72
2023-04-29T10:22:36.810Z,12.76
2023-04-29T10:25:03.584Z,12.77
2023-04-29T10:27:30.669Z,12.76
2023-04-29T10:29:57.305Z,12.77
2023-04-29T10:32:24.020Z,12.79
2023-04-29T10:34:51.233Z,12.78
2023-04-29T10:37:18.103Z,12.83
2023-04-29T10:40:05.658Z,12.89
2023-04-29T10:42:46.436Z,12.90
2023-04-29T10:45:27.598Z,12.91
2023-04-29T10:48:06.642Z,12.90
2023-04-29T10:50:34.517Z,12.91
2023-04-29T10:53:04.907Z,12.92
2023-04-29T10:55:32.126Z,12.95
2023-04-29T10:57:59.149Z,13.01
2023-04-29T11:00:30.156Z,13.07
2023-04-29T11:02:57.624Z,13.09
2023-04-29T11:05:34.591Z,13.09
2023-04-29T11:08:16.642Z,13.10
2023-04-29T11:10:43.680Z,13.13
2023-04-29T11:13:26.789Z,13.16
2023-04-29T11:15:54.287Z,13.18
2023-04-29T11:18:21.214Z,13.17
2023-04-29T11:21:06.609Z,13.16
2023-04-29T11:23:41.522Z,13.15
2023-04-29T11:26:08.425Z,13.15
2023-04-29T11:28:35.588Z,13.18
2023-04-29T11:31:03.897Z,13.22
2023-04-29T11:33:32.296Z,13.24
2023-04-29T11:35:59.535Z,13.29
2023-04-29T11:38:27.019Z,13.33
2023-04-29T11:40:55.496Z,13.37
2023-04-29T11:43:23.063Z,13.42
2023-04-29T11:45:49.988Z,13.50
2023-04-29T11:48:26.328Z,13.54
2023-04-29T11:50:59.528Z,13.53
2023-04-29T11:53:27.944Z,13.51
2023-04-29T11:55:55.173Z,13.49
2023-04-29T11:58:22.499Z,13.52
2023-04-29T12:00:49.630Z,13.57
2023-04-29T12:03:17.557Z,13.61
2023-04-29T12:05:54.741Z,13.62
2023-04-29T12:08:25.853Z,13.63
2023-04-29T12:10:53.074Z,13.64
2023-04-29T12:13:20.350Z,13.66
2023-04-29T12:15:48.150Z,13.66
2023-04-29T12:18:15.969Z,13.67
2023-04-29T12:20:42.647Z,13.70
2023-04-29T12:23:18.348Z,13.73
2023-04-29T12:25:52.326Z,13.73
2023-04-29T12:28:19.337Z,13.71
2023-04-29T12:30:47.115Z,13.67
2023-04-29T12:33:42.611Z,13.65
2023-04-29T12:36:18.772Z,13.69
2023-04-29T12:38:45.760Z,13.73
2023-04-29T12:41:14.415Z,13.76
2023-04-29T12:43:41.787Z,13.79
2023-04-29T12:46:09.275Z,13.78
2023-04-29T12:48:41.777Z,13.78
2023-04-29T12:51:12.073Z,13.79
2023-04-29T12:53:39.154Z,13.77
2023-04-29T12:56:06.664Z,13.78
2023-04-29T12:58:35.060Z,13.81
2023-04-29T13:01:01.973Z,13.83
2023-04-29T13:03:29.003Z,13.84
2023-04-29T13:05:55.996Z,13.83
2023-04-29T13:08:23.177Z,13.83
2023-04-29T13:10:50.067Z,13.85
2023-04-29T13:13:16.818Z,13.86
2023-04-29T13:15:43.517Z,13.89
2023-04-29T13:18:10.293Z,13.94
2023-04-29T13:20:41.722Z,13.93
2023-04-29T13:23:09.756Z,13.94
2023-04-29T13:25:36.533Z,13.94
2023-04-29T13:28:05.318Z,13.96
2023-04-29T13:30:32.187Z,14.01
2023-04-29T13:33:04.301Z,14.08
2023-04-29T13:35:38.584Z,14.14
2023-04-29T13:38:05.386Z,14.20
2023-04-29T13:40:37.347Z,14.25
2023-04-29T13:43:09.271Z,14.30
2023-04-29T13:45:39.967Z,14.31
2023-04-29T13:48:28.525Z,14.30
2023-04-29T13:51:34.515Z,14.30
2023-04-29T13:59:31.660Z,14.34
2023-04-29T14:04:00.439Z,14.35
2023-04-29T14:06:28.460Z,14.33
2023-04-29T14:08:55.367Z,14.35
2023-04-29T14:11:22.094Z,14.39
2023-04-29T14:13:48.862Z,14.42
2023-04-29T14:16:15.934Z,14.39
2023-04-29T14:18:42.958Z,14.39
2023-04-29T14:21:11.066Z,14.38
2023-04-29T14:23:37.796Z,14.38
2023-04-29T14:26:22.364Z,14.37
2023-04-29T14:28:57.644Z,14.35
2023-04-29T14:31:29.596Z,14.35
2023-04-29T14:33:56.911Z,14.35
2023-04-29T14:36:23.828Z,14.36
2023-04-29T14:38:51.201Z,14.35
2023-04-29T14:41:17.959Z,14.31
2023-04-29T14:43:44.719Z,14.30
2023-04-29T14:46:11.552Z,14.31
2023-04-29T14:48:38.373Z,14.31
2023-04-29T14:51:06.350Z,14.31
2023-04-29T14:53:33.692Z,14.34
2023-04-29T14:56:00.706Z,14.35
2023-04-29T14:58:27.370Z,14.37
2023-04-29T15:00:54.069Z,14.38
2023-04-29T15:03:23.091Z,14.37
2023-04-29T15:05:51.410Z,14.36
2023-04-29T15:08:19.064Z,14.31
2023-04-29T15:10:47.520Z,14.29
2023-04-29T15:13:14.701Z,14.30
2023-04-29T15:15:41.554Z,14.31
2023-04-29T15:18:09.083Z,14.30
2023-04-29T15:20:36.941Z,14.28
2023-04-29T15:23:04.267Z,14.24
2023-04-29T15:25:33.503Z,14.21
2023-04-29T15:28:00.881Z,14.20
2023-04-29T15:30:27.643Z,14.18
2023-04-29T15:32:54.840Z,14.16
2023-04-29T15:35:21.943Z,14.16
2023-04-29T15:37:48.796Z,14.16
2023-04-29T15:40:16.627Z,14.17
2023-04-29T15:42:43.422Z,14.17
2023-04-29T15:45:10.881Z,14.13
2023-04-29T15:47:37.678Z,14.09
2023-04-29T15:50:05.189Z,14.05
2023-04-29T15:52:31.887Z,14.02
2023-04-29T15:54:58.591Z,14.01
2023-04-29T15:57:26.258Z,13.98
2023-04-29T15:59:53.192Z,13.95
2023-04-29T16:02:21.153Z,13.92
2023-04-29T16:04:48.285Z,13.88
2023-04-29T16:07:15.025Z,13.85
2023-04-29T16:09:41.710Z,13.83
2023-04-29T16:12:11.573Z,13.81
2023-04-29T16:14:38.483Z,13.75
2023-04-29T16:17:05.918Z,13.73
2023-04-29T16:19:35.193Z,13.71
2023-04-29T16:22:03.370Z,13.64
2023-04-29T16:24:30.200Z,13.58
2023-04-29T16:26:57.139Z,13.52
2023-04-29T16:29:23.811Z,13.47
2023-04-29T16:31:50.869Z,13.42
2023-04-29T16:34:17.760Z,13.37
2023-04-29T16:36:44.505Z,13.32
2023-04-29T16:39:11.170Z,13.26
2023-04-29T16:41:37.917Z,13.23
2023-04-29T16:44:04.840Z,13.18
2023-04-29T16:46:32.585Z,13.12
2023-04-29T16:48:59.445Z,13.07
2023-04-29T16:51:26.235Z,13.03
2023-04-29T16:53:53.399Z,12.97
2023-04-29T16:56:21.650Z,12.91
2023-04-29T16:58:48.604Z,12.85
2023-04-29T17:01:15.666Z,12.78
2023-04-29T17:03:42.384Z,12.70
2023-04-29T17:06:09.157Z,12.64
2023-04-29T17:08:36.164Z,12.59
2023-04-29T17:11:03.034Z,12.54
2023-04-29T17:13:29.897Z,12.49
2023-04-29T17:15:56.967Z,12.44
2023-04-29T17:18:23.735Z,12.40
2023-04-29T17:20:51.082Z,12.35
2023-04-29T17:23:18.342Z,12.31
2023-04-29T17:25:45.228Z,12.24
2023-04-29T17:28:11.916Z,12.17
2023-04-29T17:30:38.685Z,12.07
2023-04-29T17:33:06.132Z,11.98
2023-04-29T17:35:33.539Z,11.88
2023-04-29T17:38:00.335Z,11.78
2023-04-29T17:40:27.122Z,11.68
2023-04-29T17:42:53.924Z,11.57
2023-04-29T17:45:20.686Z,11.45
2023-04-29T17:47:48.586Z,11.32
2023-04-29T17:50:15.405Z,11.20
2023-04-29T17:52:42.712Z,11.09
2023-04-29T17:55:10.165Z,10.97
2023-04-29T17:57:38.175Z,10.87
2023-04-29T18:00:07.447Z,10.77
2023-04-29T18:02:34.651Z,10.67
2023-04-29T18:05:03.277Z,10.56
2023-04-29T18:07:30.061Z,10.46
2023-04-29T18:09:57.328Z,10.36
2023-04-29T18:12:24.976Z,10.26
2023-04-29T18:14:52.119Z,10.16
2023-04-29T18:17:19.402Z,10.07
2023-04-29T18:19:48.202Z,9.97
2023-04-29T18:22:15.488Z,9.88
2023-04-29T18:24:42.219Z,9.76
2023-04-29T18:27:08.899Z,9.67
2023-04-29T18:29:35.634Z,9.60
2023-04-29T18:32:02.734Z,9.52
2023-04-29T18:34:29.931Z,9.42
2023-04-29T18:36:56.662Z,9.32
2023-04-29T18:39:23.439Z,9.24
2023-04-29T18:41:50.137Z,9.17
2023-04-29T18:44:16.934Z,9.06
2023-04-29T18:46:43.741Z,8.93
2023-04-29T18:49:16.085Z,8.79
2023-04-29T18:51:46.725Z,8.65
2023-04-29T18:54:17.988Z,8.54
2023-04-29T18:56:48.755Z,8.44
2023-04-29T18:59:21.770Z,8.33
2023-04-29T19:01:48.858Z,8.20
2023-04-29T19:04:16.239Z,8.09
2023-04-29T19:06:43.446Z,7.98
2023-04-29T19:09:11.370Z,7.91
2023-04-29T19:11:38.130Z,7.84
2023-04-29T19:14:04.973Z,7.77
2023-04-29T19:16:31.703Z,7.70
2023-04-29T19:18:58.386Z,7.63
2023-04-29T19:21:25.583Z,7.56
2023-04-29T19:23:52.295Z,7.50
2023-04-29T19:26:18.951Z,7.42
2023-04-29T19:28:46.030Z,7.33
2023-04-29T19:31:12.741Z,7.26
2023-04-29T19:33:39.552Z,7.19
2023-04-29T19:36:06.295Z,7.13
2023-04-29T19:38:33.003Z,7.09
2023-04-29T19:40:59.952Z,7.05
2023-04-29T19:43:26.838Z,6.99
2023-04-29T19:45:53.475Z,6.93
2023-04-29T19:48:20.241Z,6.87
2023-04-29T19:50:46.968Z,6.82
2023-04-29T19:53:13.785Z,6.79
2023-04-29T19:55:40.699Z,6.78
2023-04-29T19:58:07.539Z,6.76
2023-04-29T20:00:34.467Z,6.72
2023-04-29T20:03:01.322Z,6.66
2023-04-29T20:05:28.977Z,6.61
2023-04-29T20:07:55.885Z,6.59
2023-04-29T20:10:22.641Z,6.55
2023-04-29T20:12:49.379Z,6.48
2023-04-29T20:15:16.474Z,6.40
2023-04-29T20:17:43.343Z,6.37
2023-04-29T20:20:10.601Z,6.34
2023-04-29T20:22:37.395Z,6.33
2023-04-29T20:25:04.302Z,6.30
2023-04-29T20:27:31.039Z,6.27
2023-04-29T20:29:57.794Z,6.22
2023-04-29T20:32:24.715Z,6.18
2023-04-29T20:34:52.608Z,6.16
2023-04-29T20:37:22.219Z,6.14
2023-04-29T20:39:48.921Z,6.11
2023-04-29T20:42:15.595Z,6.05
2023-04-29T20:44:42.495Z,6.03
2023-04-29T20:47:09.713Z,6.02
2023-04-29T20:49:36.871Z,5.99
2023-04-29T20:52:06.474Z,5.95
2023-04-29T20:54:33.635Z,5.90
2023-04-29T20:57:00.596Z,5.84
2023-04-29T20:59:27.234Z,5.78
2023-04-29T21:01:54.069Z,5.74
2023-04-29T21:04:21.200Z,5.69
2023-04-29T21:06:48.082Z,5.64
2023-04-29T21:09:15.681Z,5.58
2023-04-29T21:11:42.707Z,5.55
2023-04-29T21:14:09.449Z,5.55
2023-04-29T21:16:36.299Z,5.55
2023-04-29T21:19:02.937Z,5.54
2023-04-29T21:21:31.839Z,5.54
2023-04-29T21:23:58.506Z,5.54
2023-04-29T21:26:25.214Z,5.56
2023-04-29T21:28:51.849Z,5.57
2023-04-29T21:31:18.580Z,5.59
2023-04-29T21:33:46.349Z,5.59
2023-04-29T21:36:13.326Z,5.62
2023-04-29T21:38:40.189Z,5.65
2023-04-29T21:43:24.904Z,5.67
2023-04-29T21:45:52.389Z,5.62
2023-04-29T21:48:20.611Z,5.58
2023-04-29T21:50:47.418Z,5.57
2023-04-29T21:53:16.201Z,5.54
2023-04-29T21:55:43.611Z,5.53
2023-04-29T21:58:11.060Z,5.50
2023-04-29T22:00:41.101Z,5.45
2023-04-29T22:03:11.441Z,5.41
2023-04-29T22:05:38.117Z,5.36
2023-04-29T22:08:07.220Z,5.32
2023-04-29T22:10:34.314Z,5.29
2023-04-29T22:13:01.043Z,5.29
2023-04-29T22:15:29.315Z,5.28
2023-04-29T22:17:57.459Z,5.28
2023-04-29T22:20:24.572Z,5.25
2023-04-29T22:22:52.135Z,5.25
2023-04-29T22:25:21.041Z,5.26
2023-04-29T22:27:48.431Z,5.30
2023-04-29T22:30:17.563Z,5.36
2023-04-29T22:32:44.400Z,5.39
2023-04-29T22:35:11.399Z,5.41
2023-04-29T22:37:38.233Z,5.43
2023-04-29T22:40:05.672Z,5.45
2023-04-29T22:42:32.356Z,5.44
2023-04-29T22:44:59.039Z,5.42
2023-04-29T22:47:26.362Z,5.40
2023-04-29T22:49:53.260Z,5.38
2023-04-29T22:52:19.970Z,5.35
2023-04-29T22:54:46.697Z,5.31
2023-04-29T22:57:13.432Z,5.28
2023-04-29T22:59:40.212Z,5.27
2023-04-29T23:02:07.049Z,5.26
2023-04-29T23:04:33.778Z,5.26
2023-04-29T23:07:00.642Z,5.26
2023-04-29T23:09:27.583Z,5.27
2023-04-29T23:11:54.333Z,5.27
2023-04-29T23:14:21.384Z,5.29
2023-04-29T23:16:48.008Z,5.32
2023-04-29T23:19:14.795Z,5.36
2023-04-29T23:21:42.080Z,5.39
2023-04-29T23:24:08.711Z,5.42
2023-04-29T23:26:35.358Z,5.42
2023-04-29T23:29:02.021Z,5.40
2023-04-29T23:31:28.672Z,5.38
2023-04-29T23:33:55.342Z,5.37
2023-04-29T23:36:22.014Z,5.37
2023-04-29T23:38:48.649Z,5.35
2023-04-29T23:41:15.301Z,5.32
2023-04-29T23:43:41.970Z,5.28
2023-04-29T23:46:09.057Z,5.23
2023-04-29T23:48:36.198Z,5.19
2023-04-29T23:51:02.984Z,5.18
2023-04-29T23:53:29.662Z,5.19
2023-04-29T23:55:56.380Z,5.20
2023-04-29T23:58:23.181Z,5.20
